createdAt,value
2022-11-03T08:34:24.092Z,4.33
2022-11-03T08:36:50.676Z,4.63
2022-11-03T08:39:17.457Z,4.43
2022-11-03T08:41:44.084Z,5.37
2022-11-03T08:44:10.641Z,3.80
2022-11-03T08:46:37.268Z,4.60
2022-11-03T08:49:03.817Z,4.00
2022-11-03T08:51:30.406Z,5.27
2022-11-03T08:53:56.984Z,4.77
2022-11-03T08:56:23.646Z,4.60
2022-11-03T08:58:50.365Z,4.97
2022-11-03T09:01:16.975Z,4.67
2022-11-03T09:03:43.739Z,4.97
2022-11-03T09:06:10.449Z,4.60
2022-11-03T09:11:23.782Z,5.07
2022-11-03T09:13:50.347Z,5.03
2022-11-03T09:16:17.246Z,4.23
2022-11-03T09:18:44.092Z,5.00
2022-11-03T09:21:10.650Z,5.13
2022-11-03T09:23:37.218Z,5.10
2022-11-03T09:26:05.804Z,5.47
2022-11-03T09:28:33.106Z,5.60
2022-11-03T09:30:59.661Z,5.13
2022-11-03T09:33:26.246Z,5.30
2022-11-03T09:35:52.803Z,4.93
2022-11-03T09:38:19.362Z,5.00
2022-11-03T09:40:46.023Z,4.90
2022-11-03T09:43:12.718Z,5.30
2022-11-03T09:45:39.596Z,4.53
2022-11-03T09:48:10.511Z,4.63
2022-11-03T09:50:37.859Z,5.07
2022-11-03T09:53:04.685Z,4.10
2022-11-03T09:55:32.820Z,4.80
2022-11-03T09:58:01.294Z,4.33
2022-11-03T10:00:28.329Z,4.50
2022-11-03T10:02:55.324Z,4.30
2022-11-03T10:05:26.721Z,4.87
2022-11-03T10:07:58.341Z,4.23
2022-11-03T10:10:25.897Z,4.73
2022-11-03T10:12:53.337Z,3.97
2022-11-03T10:15:22.625Z,4.43
2022-11-03T10:17:50.764Z,4.70
2022-11-03T10:20:22.236Z,5.63
2022-11-03T10:22:52.519Z,4.37
2022-11-03T10:25:41.157Z,4.43
2022-11-03T10:28:26.908Z,5.00
2022-11-03T10:31:12.939Z,3.90
2022-11-03T10:33:54.735Z,5.00
2022-11-03T10:36:29.304Z,4.53
2022-11-03T10:38:56.478Z,4.53
2022-11-03T10:41:27.048Z,4.37
2022-11-03T10:44:11.951Z,3.67
2022-11-03T10:46:56.535Z,4.37
2022-11-03T10:49:23.171Z,4.30
2022-11-03T10:51:52.617Z,4.20
2022-11-03T10:54:21.629Z,4.00
2022-11-03T10:56:49.543Z,4.20
2022-11-03T10:59:20.234Z,4.13
2022-11-03T11:01:47.212Z,3.67
2022-11-03T11:04:20.970Z,3.53
2022-11-03T11:06:47.855Z,4.57
2022-11-03T11:09:18.004Z,3.87
2022-11-03T11:12:01.085Z,4.30
2022-11-03T11:14:30.420Z,3.87
2022-11-03T11:16:59.125Z,3.70
2022-11-03T11:19:27.664Z,4.13
2022-11-03T11:21:54.158Z,3.70
2022-11-03T11:24:45.435Z,3.93
2022-11-03T11:27:31.918Z,4.82
2022-11-03T11:29:59.614Z,4.27
2022-11-03T11:32:44.873Z,4.13
2022-11-03T11:35:12.456Z,3.33
2022-11-03T11:37:39.055Z,4.07
2022-11-03T11:40:23.690Z,3.80
2022-11-03T11:43:22.381Z,3.77
2022-11-03T11:46:23.144Z,3.93
2022-11-03T11:49:09.909Z,3.57
2022-11-03T11:51:37.863Z,3.23
2022-11-03T11:54:24.122Z,3.27
2022-11-03T11:56:50.747Z,4.15
2022-11-03T11:59:30.283Z,3.33
2022-11-03T12:02:04.759Z,3.92
2022-11-03T12:04:33.295Z,3.42
2022-11-03T12:06:59.897Z,3.70
2022-11-03T12:09:28.142Z,3.72
2022-11-03T12:11:59.262Z,3.90
2022-11-03T12:14:39.898Z,3.50
2022-11-03T12:17:18.870Z,3.43
2022-11-03T12:19:50.604Z,3.47
2022-11-03T12:22:40.746Z,3.20
2022-11-03T12:25:35.111Z,3.60
2022-11-03T12:28:01.850Z,2.90
2022-11-03T12:30:28.439Z,3.23
2022-11-03T12:32:55.030Z,3.67
2022-11-03T12:35:21.603Z,2.50
2022-11-03T12:37:48.135Z,3.10
2022-11-03T12:40:14.951Z,3.50
2022-11-03T12:42:41.610Z,3.03
2022-11-03T12:45:08.922Z,3.43
2022-11-03T12:47:35.597Z,2.93
2022-11-03T12:50:02.212Z,3.10
2022-11-03T12:52:28.761Z,3.40
2022-11-03T12:54:55.339Z,2.88
2022-11-03T12:57:21.899Z,2.80
2022-11-03T12:59:48.437Z,2.83
2022-11-03T13:02:15.167Z,3.60
2022-11-03T13:04:41.828Z,3.10
2022-11-03T13:07:08.395Z,3.20
2022-11-03T13:09:36.019Z,3.00
2022-11-03T13:12:21.598Z,2.88
2022-11-03T13:14:48.765Z,3.43
2022-11-03T13:17:15.664Z,2.90
2022-11-03T13:19:42.315Z,2.67
2022-11-03T13:22:08.916Z,3.50
2022-11-03T13:24:35.553Z,2.90
2022-11-03T13:27:02.145Z,2.47
2022-11-03T13:29:34.004Z,2.73
2022-11-03T13:32:03.563Z,3.53
2022-11-03T13:34:30.374Z,3.03
2022-11-03T13:36:57.108Z,3.00
2022-11-03T13:39:23.660Z,3.00
2022-11-03T13:41:50.249Z,3.27
2022-11-03T13:44:16.892Z,2.83
2022-11-03T13:46:43.501Z,4.07
2022-11-03T13:51:56.683Z,3.17
2022-11-03T13:59:58.954Z,3.90
2022-11-03T14:05:14.144Z,3.80
2022-11-03T14:07:40.674Z,3.53
2022-11-03T14:10:07.832Z,3.50
2022-11-03T14:12:36.145Z,2.90
2022-11-03T14:15:09.022Z,3.13
2022-11-03T14:17:36.133Z,3.63
2022-11-03T14:20:04.827Z,3.10
2022-11-03T14:22:32.148Z,2.90
2022-11-03T14:24:59.167Z,3.03
2022-11-03T14:27:26.026Z,3.83
2022-11-03T14:29:52.686Z,3.33
2022-11-03T14:32:19.604Z,3.90
2022-11-03T14:34:47.780Z,4.47
2022-11-03T14:37:15.240Z,3.90
2022-11-03T14:39:41.944Z,3.23
2022-11-03T14:42:15.338Z,3.83
2022-11-03T14:44:43.573Z,3.00
2022-11-03T14:47:12.000Z,3.67
2022-11-03T14:49:38.578Z,3.80
2022-11-03T14:52:07.260Z,3.40
2022-11-03T14:54:34.610Z,3.97
2022-11-03T14:57:01.966Z,3.03
2022-11-03T14:59:28.651Z,3.13
2022-11-03T15:01:55.765Z,3.10
2022-11-03T15:04:22.586Z,2.67
2022-11-03T15:06:49.465Z,3.40
2022-11-03T15:09:16.415Z,3.53
2022-11-03T15:11:43.866Z,3.03
2022-11-03T15:14:12.093Z,3.57
2022-11-03T15:16:39.371Z,3.47
2022-11-03T15:19:06.659Z,3.57
2022-11-03T15:21:33.706Z,3.33
2022-11-03T15:26:46.954Z,3.63
2022-11-03T15:29:13.626Z,4.13
2022-11-03T15:31:44.489Z,3.73
2022-11-03T15:34:14.061Z,4.63
2022-11-03T15:36:40.697Z,3.70
2022-11-03T15:39:07.312Z,3.13
2022-11-03T15:41:33.894Z,2.90
2022-11-03T15:44:00.432Z,3.33
2022-11-03T15:46:27.043Z,4.43
2022-11-03T15:48:54.707Z,3.37
2022-11-03T15:51:21.383Z,3.80
2022-11-03T15:53:47.938Z,3.17
2022-11-03T15:56:14.542Z,3.90
2022-11-03T15:58:41.092Z,4.83
